3U1025 ZPPP-ZLXN
Flight info
| Callsign | 3U1025 |
|---|---|
| Flight time | N/A |
| Altitude | 34100 |
| Route | DADOL W144 IGNAK W179 OMBON W195 ORUNA V117 IKOMU UPVOP |
| Aircraft | A321/M-VGDW/C |
Departure
| Time | N/A |
|---|---|
| Airport | Kunming Changshui International Airport (ZPPP) |
Arrival
| Time | 2026-05-07 09:59 |
|---|---|
| Airport | Xining Caojiabao International Airport (ZLXN) |
| Time | Latitude | Longitude | Altitude | Speed | Heading |
|---|---|---|---|---|---|
| 2026-05-07 09:15 | 33.47992 | 104.18797 | 34541 ft | 446 kts | 322° |
| 2026-05-07 09:15 | 33.53568 | 104.15254 | 34536 ft | 453 kts | 328° |
| 2026-05-07 09:16 | 33.59195 | 104.12865 | 34547 ft | 465 kts | 336° |
| 2026-05-07 09:16 | 33.65609 | 104.11425 | 34543 ft | 476 kts | 345° |
| 2026-05-07 09:17 | 33.72300 | 104.11176 | 34538 ft | 485 kts | 353° |
| 2026-05-07 09:17 | 33.79065 | 104.11229 | 34526 ft | 483 kts | 352° |
| 2026-05-07 09:18 | 33.85839 | 104.11230 | 34510 ft | 482 kts | 352° |
| 2026-05-07 09:18 | 33.92574 | 104.11227 | 34498 ft | 482 kts | 351° |
| 2026-05-07 09:19 | 33.99279 | 104.11227 | 34509 ft | 482 kts | 351° |
| 2026-05-07 09:19 | 34.05956 | 104.11226 | 34494 ft | 481 kts | 351° |
| 2026-05-07 09:20 | 34.12704 | 104.11224 | 34495 ft | 479 kts | 352° |
| 2026-05-07 09:20 | 34.19360 | 104.11219 | 34493 ft | 480 kts | 352° |
| 2026-05-07 09:21 | 34.26080 | 104.11217 | 34493 ft | 479 kts | 352° |
| 2026-05-07 09:21 | 34.32756 | 104.11214 | 34497 ft | 478 kts | 352° |
| 2026-05-07 09:22 | 34.39396 | 104.11212 | 34488 ft | 477 kts | 352° |
| 2026-05-07 09:22 | 34.46050 | 104.11205 | 34493 ft | 476 kts | 353° |
| 2026-05-07 09:23 | 34.52692 | 104.11204 | 34490 ft | 473 kts | 352° |
| 2026-05-07 09:23 | 34.59140 | 104.11212 | 34494 ft | 465 kts | 352° |
| 2026-05-07 09:24 | 34.65638 | 104.11209 | 34498 ft | 463 kts | 353° |
| 2026-05-07 09:24 | 34.72120 | 104.11205 | 34492 ft | 462 kts | 353° |
| 2026-05-07 09:25 | 34.78551 | 104.11204 | 34490 ft | 461 kts | 353° |
| 2026-05-07 09:25 | 34.85013 | 104.11201 | 34490 ft | 461 kts | 353° |
| 2026-05-07 09:26 | 34.91431 | 104.11201 | 34505 ft | 460 kts | 353° |
| 2026-05-07 09:26 | 34.97851 | 104.11197 | 34514 ft | 461 kts | 353° |
| 2026-05-07 09:27 | 35.04242 | 104.11195 | 34518 ft | 460 kts | 353° |
| 2026-05-07 09:28 | 35.13857 | 104.11192 | 34513 ft | 460 kts | 354° |
| 2026-05-07 09:28 | 35.20305 | 104.11191 | 34521 ft | 460 kts | 353° |
| 2026-05-07 09:29 | 35.26723 | 104.11188 | 34503 ft | 459 kts | 354° |
| 2026-05-07 09:29 | 35.33114 | 104.11184 | 34487 ft | 460 kts | 353° |
| 2026-05-07 09:30 | 35.39531 | 104.11179 | 34504 ft | 460 kts | 353° |
| 2026-05-07 09:30 | 35.45784 | 104.10200 | 34499 ft | 448 kts | 339° |
| 2026-05-07 09:31 | 35.51443 | 104.07434 | 34501 ft | 436 kts | 324° |
| 2026-05-07 09:31 | 35.56299 | 104.03136 | 34496 ft | 425 kts | 312° |
| 2026-05-07 09:32 | 35.60456 | 103.97955 | 34488 ft | 425 kts | 309° |
| 2026-05-07 09:32 | 35.64539 | 103.92711 | 34492 ft | 424 kts | 308° |
| 2026-05-07 09:33 | 35.68602 | 103.87498 | 34484 ft | 424 kts | 309° |
| 2026-05-07 09:33 | 35.72698 | 103.82240 | 34486 ft | 425 kts | 309° |
| 2026-05-07 09:34 | 35.76778 | 103.77003 | 34473 ft | 426 kts | 309° |
| 2026-05-07 09:34 | 35.80904 | 103.71700 | 34466 ft | 426 kts | 309° |
| 2026-05-07 09:35 | 35.84994 | 103.66430 | 34445 ft | 426 kts | 309° |
| 2026-05-07 09:35 | 35.89072 | 103.61171 | 34450 ft | 425 kts | 309° |
| 2026-05-07 09:36 | 35.93144 | 103.55908 | 34456 ft | 426 kts | 309° |
| 2026-05-07 09:36 | 35.97232 | 103.50615 | 34454 ft | 426 kts | 309° |
| 2026-05-07 09:37 | 36.01321 | 103.45310 | 34450 ft | 426 kts | 309° |
| 2026-05-07 09:37 | 36.05428 | 103.39973 | 34450 ft | 429 kts | 309° |
| 2026-05-07 09:38 | 36.09436 | 103.34629 | 34446 ft | 426 kts | 306° |
| 2026-05-07 09:38 | 36.13309 | 103.29058 | 34448 ft | 425 kts | 305° |
| 2026-05-07 09:39 | 36.17145 | 103.23499 | 34446 ft | 426 kts | 306° |
| 2026-05-07 09:39 | 36.20972 | 103.17951 | 34454 ft | 425 kts | 306° |
| 2026-05-07 09:40 | 36.24824 | 103.12356 | 34461 ft | 426 kts | 305° |
| 2026-05-07 09:40 | 36.28657 | 103.06776 | 34478 ft | 426 kts | 305° |
| 2026-05-07 09:41 | 36.32473 | 103.01212 | 34477 ft | 425 kts | 305° |
| 2026-05-07 09:41 | 36.34396 | 102.98408 | 34230 ft | 426 kts | 306° |
| 2026-05-07 09:41 | 36.36308 | 102.95616 | 33950 ft | 423 kts | 306° |
| 2026-05-07 09:41 | 36.38182 | 102.92875 | 33678 ft | 420 kts | 306° |
| 2026-05-07 09:42 | 36.40079 | 102.90101 | 33344 ft | 417 kts | 305° |
| 2026-05-07 09:42 | 36.41897 | 102.87308 | 32844 ft | 417 kts | 303° |
| 2026-05-07 09:42 | 36.43588 | 102.84412 | 32189 ft | 416 kts | 300° |
| 2026-05-07 09:42 | 36.45144 | 102.81422 | 31510 ft | 415 kts | 297° |
| 2026-05-07 09:43 | 36.46630 | 102.78376 | 30782 ft | 416 kts | 297° |
| 2026-05-07 09:43 | 36.48113 | 102.75306 | 30063 ft | 415 kts | 297° |
| 2026-05-07 09:43 | 36.49596 | 102.72228 | 29308 ft | 416 kts | 297° |
| 2026-05-07 09:43 | 36.51091 | 102.69125 | 28586 ft | 417 kts | 298° |
| 2026-05-07 09:44 | 36.52568 | 102.66053 | 27741 ft | 422 kts | 298° |
| 2026-05-07 09:44 | 36.54072 | 102.62920 | 26894 ft | 426 kts | 299° |
| 2026-05-07 09:44 | 36.55589 | 102.59766 | 26206 ft | 426 kts | 299° |
| 2026-05-07 09:44 | 36.57098 | 102.56624 | 25539 ft | 425 kts | 299° |
| 2026-05-07 09:45 | 36.58600 | 102.53494 | 24856 ft | 424 kts | 299° |
| 2026-05-07 09:45 | 36.60015 | 102.50261 | 24185 ft | 423 kts | 296° |
| 2026-05-07 09:45 | 36.61240 | 102.46953 | 23525 ft | 422 kts | 292° |
| 2026-05-07 09:45 | 36.62276 | 102.43574 | 22870 ft | 421 kts | 289° |
| 2026-05-07 09:46 | 36.63242 | 102.40093 | 22217 ft | 420 kts | 289° |
| 2026-05-07 09:46 | 36.64176 | 102.36657 | 21585 ft | 420 kts | 289° |
| 2026-05-07 09:46 | 36.65104 | 102.33232 | 20941 ft | 420 kts | 289° |
| 2026-05-07 09:46 | 36.66025 | 102.29828 | 20308 ft | 420 kts | 289° |
| 2026-05-07 09:47 | 36.66962 | 102.26372 | 19670 ft | 420 kts | 289° |
| 2026-05-07 09:47 | 36.67886 | 102.22961 | 19043 ft | 420 kts | 289° |
| 2026-05-07 09:47 | 36.68823 | 102.19502 | 18416 ft | 420 kts | 290° |
| 2026-05-07 09:47 | 36.69744 | 102.16096 | 17788 ft | 420 kts | 290° |
| 2026-05-07 09:48 | 36.70671 | 102.12667 | 17311 ft | 414 kts | 290° |
| 2026-05-07 09:48 | 36.71575 | 102.09318 | 17172 ft | 400 kts | 290° |
| 2026-05-07 09:48 | 36.72438 | 102.06110 | 17047 ft | 386 kts | 290° |
| 2026-05-07 09:48 | 36.73276 | 102.02990 | 16930 ft | 373 kts | 290° |
| 2026-05-07 09:49 | 36.74089 | 101.99961 | 16821 ft | 360 kts | 290° |
| 2026-05-07 09:49 | 36.74864 | 101.97070 | 16737 ft | 347 kts | 290° |
| 2026-05-07 09:49 | 36.75354 | 101.95242 | 16679 ft | 338 kts | 290° |
| 2026-05-07 09:49 | 36.76079 | 101.92530 | 16608 ft | 325 kts | 290° |
| 2026-05-07 09:50 | 36.76787 | 101.89884 | 16525 ft | 313 kts | 290° |
| 2026-05-07 09:50 | 36.77418 | 101.87350 | 16416 ft | 303 kts | 282° |
| 2026-05-07 09:50 | 36.77344 | 101.84764 | 16058 ft | 302 kts | 252° |
| 2026-05-07 09:50 | 36.76410 | 101.82446 | 15638 ft | 303 kts | 236° |
| 2026-05-07 09:51 | 36.75241 | 101.80303 | 15365 ft | 299 kts | 235° |
| 2026-05-07 09:51 | 36.74101 | 101.78138 | 15089 ft | 294 kts | 237° |
| 2026-05-07 09:51 | 36.73049 | 101.75983 | 14826 ft | 290 kts | 239° |
| 2026-05-07 09:51 | 36.72045 | 101.73821 | 14559 ft | 286 kts | 240° |
| 2026-05-07 09:52 | 36.70997 | 101.71737 | 14295 ft | 281 kts | 227° |
| 2026-05-07 09:52 | 36.69431 | 101.70421 | 14007 ft | 273 kts | 197° |
| 2026-05-07 09:52 | 36.67620 | 101.69721 | 13745 ft | 265 kts | 195° |
| 2026-05-07 09:52 | 36.65912 | 101.69057 | 13408 ft | 254 kts | 195° |
| 2026-05-07 09:53 | 36.64226 | 101.68740 | 13029 ft | 239 kts | 170° |
| 2026-05-07 09:53 | 36.62790 | 101.69603 | 12598 ft | 225 kts | 135° |
| 2026-05-07 09:53 | 36.61988 | 101.71149 | 12249 ft | 212 kts | 110° |
| 2026-05-07 09:53 | 36.61541 | 101.72864 | 11879 ft | 206 kts | 107° |
| 2026-05-07 09:54 | 36.61138 | 101.74560 | 11472 ft | 204 kts | 105° |
| 2026-05-07 09:54 | 36.60737 | 101.76266 | 11257 ft | 206 kts | 106° |
| 2026-05-07 09:54 | 36.60305 | 101.77975 | 10991 ft | 206 kts | 107° |
| 2026-05-07 09:54 | 36.59859 | 101.79637 | 10717 ft | 205 kts | 108° |
| 2026-05-07 09:55 | 36.59407 | 101.81266 | 10435 ft | 193 kts | 109° |
| 2026-05-07 09:55 | 36.58974 | 101.82804 | 10164 ft | 182 kts | 109° |
| 2026-05-07 09:55 | 36.58571 | 101.84227 | 9921 ft | 169 kts | 110° |
| 2026-05-07 09:55 | 36.58193 | 101.85561 | 9712 ft | 162 kts | 110° |
| 2026-05-07 09:56 | 36.57824 | 101.86865 | 9534 ft | 160 kts | 109° |
| 2026-05-07 09:56 | 36.57452 | 101.88180 | 9346 ft | 159 kts | 109° |
| 2026-05-07 09:56 | 36.57088 | 101.89474 | 9160 ft | 159 kts | 110° |
| 2026-05-07 09:56 | 36.56721 | 101.90775 | 8962 ft | 159 kts | 109° |
| 2026-05-07 09:57 | 36.56361 | 101.92057 | 8772 ft | 158 kts | 109° |
| 2026-05-07 09:57 | 36.55998 | 101.93352 | 8566 ft | 158 kts | 109° |
| 2026-05-07 09:57 | 36.55634 | 101.94648 | 8357 ft | 158 kts | 108° |
| 2026-05-07 09:57 | 36.55275 | 101.95925 | 8152 ft | 158 kts | 108° |
| 2026-05-07 09:58 | 36.54910 | 101.97212 | 7951 ft | 158 kts | 108° |
| 2026-05-07 09:58 | 36.54549 | 101.98504 | 7800 ft | 158 kts | 106° |
| 2026-05-07 09:58 | 36.54197 | 101.99814 | 7618 ft | 159 kts | 109° |
| 2026-05-07 09:58 | 36.53830 | 102.01102 | 7345 ft | 155 kts | 109° |
| 2026-05-07 09:59 | 36.53483 | 102.02345 | 7181 ft | 146 kts | 109° |
| 2026-05-07 09:59 | 36.53193 | 102.03396 | 7166 ft | 95 kts | 109° |
| 2026-05-07 09:59 | 36.53067 | 102.03831 | 7165 ft | 24 kts | 108° |
| 2026-05-07 09:59 | 36.53015 | 102.04017 | 7165 ft | 20 kts | 109° |
| 2026-05-07 10:00 | 36.52965 | 102.04170 | 7165 ft | 17 kts | 119° |
| 2026-05-07 10:00 | 36.52898 | 102.04281 | 7164 ft | 14 kts | 133° |
| 2026-05-07 10:00 | 36.52830 | 102.04363 | 7164 ft | 12 kts | 139° |
| 2026-05-07 10:00 | 36.52758 | 102.04376 | 7164 ft | 10 kts | 200° |
| 2026-05-07 10:01 | 36.52697 | 102.04346 | 7164 ft | 8 kts | 199° |
| 2026-05-07 10:01 | 36.52654 | 102.04311 | 7163 ft | 6 kts | 234° |
| 2026-05-07 10:01 | 36.52636 | 102.04265 | 7163 ft | 5 kts | 246° |
| 2026-05-07 10:01 | 36.52624 | 102.04231 | 7163 ft | 3 kts | 247° |
| 2026-05-07 10:02 | 36.52616 | 102.04209 | 7163 ft | 2 kts | 246° |
| 2026-05-07 10:02 | 36.52615 | 102.04205 | 7163 ft | 0 kts | 246° |